sensor_id;sensor_type;location;lat;lon;timestamp;P1;durP1;ratioP1;P2;durP2;ratioP2
11473;SDS011;5793;52.238;13.438;2024-01-30T00:00:48;10.83;;;6.90;;
11473;SDS011;5793;52.238;13.438;2024-01-30T00:03:16;10.03;;;6.53;;
11473;SDS011;5793;52.238;13.438;2024-01-30T00:05:44;10.03;;;7.17;;
11473;SDS011;5793;52.238;13.438;2024-01-30T00:08:13;8.77;;;6.60;;
11473;SDS011;5793;52.238;13.438;2024-01-30T00:10:41;13.37;;;7.37;;
11473;SDS011;5793;52.238;13.438;2024-01-30T00:13:08;9.87;;;6.50;;
11473;SDS011;5793;52.238;13.438;2024-01-30T00:15:36;12.97;;;7.47;;
11473;SDS011;5793;52.238;13.438;2024-01-30T00:18:04;11.37;;;6.80;;
11473;SDS011;5793;52.238;13.438;2024-01-30T00:20:33;8.87;;;5.93;;
11473;SDS011;5793;52.238;13.438;2024-01-30T00:23:00;12.47;;;6.63;;
11473;SDS011;5793;52.238;13.438;2024-01-30T00:25:30;13.73;;;7.50;;
11473;SDS011;5793;52.238;13.438;2024-01-30T00:27:59;11.10;;;7.13;;
11473;SDS011;5793;52.238;13.438;2024-01-30T00:30:27;9.43;;;6.33;;
11473;SDS011;5793;52.238;13.438;2024-01-30T00:32:55;9.20;;;6.63;;
11473;SDS011;5793;52.238;13.438;2024-01-30T00:35:23;8.43;;;5.83;;
11473;SDS011;5793;52.238;13.438;2024-01-30T00:37:50;9.40;;;6.67;;
11473;SDS011;5793;52.238;13.438;2024-01-30T00:40:18;9.73;;;7.10;;
11473;SDS011;5793;52.238;13.438;2024-01-30T00:42:48;9.03;;;6.20;;
11473;SDS011;5793;52.238;13.438;2024-01-30T00:45:16;13.60;;;6.63;;
11473;SDS011;5793;52.238;13.438;2024-01-30T00:47:44;10.50;;;6.73;;
11473;SDS011;5793;52.238;13.438;2024-01-30T00:50:12;10.30;;;6.53;;
11473;SDS011;5793;52.238;13.438;2024-01-30T00:52:40;9.57;;;6.57;;
11473;SDS011;5793;52.238;13.438;2024-01-30T00:55:11;10.83;;;7.13;;
11473;SDS011;5793;52.238;13.438;2024-01-30T00:57:39;11.93;;;6.90;;
11473;SDS011;5793;52.238;13.438;2024-01-30T01:00:13;13.40;;;7.07;;
11473;SDS011;5793;52.238;13.438;2024-01-30T01:02:43;13.07;;;7.60;;
11473;SDS011;5793;52.238;13.438;2024-01-30T01:05:11;11.27;;;6.60;;
11473;SDS011;5793;52.238;13.438;2024-01-30T01:07:39;10.50;;;6.47;;
11473;SDS011;5793;52.238;13.438;2024-01-30T01:10:09;12.70;;;7.17;;
11473;SDS011;5793;52.238;13.438;2024-01-30T01:12:37;11.80;;;7.33;;
11473;SDS011;5793;52.238;13.438;2024-01-30T01:15:06;10.03;;;6.73;;
11473;SDS011;5793;52.238;13.438;2024-01-30T01:17:37;10.63;;;7.10;;
11473;SDS011;5793;52.238;13.438;2024-01-30T01:20:06;12.17;;;7.40;;
11473;SDS011;5793;52.238;13.438;2024-01-30T01:22:37;12.13;;;7.60;;
11473;SDS011;5793;52.238;13.438;2024-01-30T01:25:06;12.10;;;7.37;;
11473;SDS011;5793;52.238;13.438;2024-01-30T01:27:34;10.97;;;6.90;;
11473;SDS011;5793;52.238;13.438;2024-01-30T01:30:07;12.90;;;6.47;;
11473;SDS011;5793;52.238;13.438;2024-01-30T01:32:38;12.10;;;7.87;;
11473;SDS011;5793;52.238;13.438;2024-01-30T01:35:11;10.60;;;6.90;;
11473;SDS011;5793;52.238;13.438;2024-01-30T01:37:39;11.13;;;7.57;;
11473;SDS011;5793;52.238;13.438;2024-01-30T01:40:07;9.93;;;7.13;;
11473;SDS011;5793;52.238;13.438;2024-01-30T01:42:35;14.20;;;8.23;;
11473;SDS011;5793;52.238;13.438;2024-01-30T01:45:03;14.10;;;8.17;;
11473;SDS011;5793;52.238;13.438;2024-01-30T01:47:32;14.03;;;8.33;;
11473;SDS011;5793;52.238;13.438;2024-01-30T01:50:01;13.70;;;8.33;;
11473;SDS011;5793;52.238;13.438;2024-01-30T01:52:29;16.17;;;8.70;;
11473;SDS011;5793;52.238;13.438;2024-01-30T01:54:57;14.20;;;8.27;;
11473;SDS011;5793;52.238;13.438;2024-01-30T01:57:26;15.53;;;8.40;;
11473;SDS011;5793;52.238;13.438;2024-01-30T01:59:54;11.87;;;8.00;;
11473;SDS011;5793;52.238;13.438;2024-01-30T02:02:21;13.47;;;8.53;;
11473;SDS011;5793;52.238;13.438;2024-01-30T02:04:51;12.60;;;8.33;;
11473;SDS011;5793;52.238;13.438;2024-01-30T02:07:21;12.73;;;8.27;;
11473;SDS011;5793;52.238;13.438;2024-01-30T02:09:49;14.80;;;8.20;;
11473;SDS011;5793;52.238;13.438;2024-01-30T02:12:17;12.57;;;7.97;;
11473;SDS011;5793;52.238;13.438;2024-01-30T02:14:44;14.50;;;8.33;;
11473;SDS011;5793;52.238;13.438;2024-01-30T02:17:13;17.03;;;9.43;;
11473;SDS011;5793;52.238;13.438;2024-01-30T02:19:40;14.10;;;8.87;;
11473;SDS011;5793;52.238;13.438;2024-01-30T02:22:10;15.27;;;9.17;;
11473;SDS011;5793;52.238;13.438;2024-01-30T02:24:38;16.17;;;8.50;;
11473;SDS011;5793;52.238;13.438;2024-01-30T02:27:06;13.70;;;8.77;;
11473;SDS011;5793;52.238;13.438;2024-01-30T02:29:33;14.27;;;9.00;;
11473;SDS011;5793;52.238;13.438;2024-01-30T02:32:01;16.37;;;9.27;;
11473;SDS011;5793;52.238;13.438;2024-01-30T02:34:29;14.63;;;8.57;;
11473;SDS011;5793;52.238;13.438;2024-01-30T02:36:57;14.50;;;8.57;;
11473;SDS011;5793;52.238;13.438;2024-01-30T02:39:26;14.93;;;8.43;;
11473;SDS011;5793;52.238;13.438;2024-01-30T02:41:54;13.53;;;8.70;;
11473;SDS011;5793;52.238;13.438;2024-01-30T02:44:21;15.13;;;9.27;;
11473;SDS011;5793;52.238;13.438;2024-01-30T02:46:49;13.27;;;8.67;;
11473;SDS011;5793;52.238;13.438;2024-01-30T02:49:17;15.27;;;8.90;;
11473;SDS011;5793;52.238;13.438;2024-01-30T02:51:45;16.53;;;9.80;;
11473;SDS011;5793;52.238;13.438;2024-01-30T02:54:13;16.27;;;9.63;;
11473;SDS011;5793;52.238;13.438;2024-01-30T02:56:42;15.77;;;9.50;;
11473;SDS011;5793;52.238;13.438;2024-01-30T02:59:10;14.13;;;8.47;;
11473;SDS011;5793;52.238;13.438;2024-01-30T03:01:44;12.80;;;8.30;;
11473;SDS011;5793;52.238;13.438;2024-01-30T03:04:12;13.47;;;8.23;;
11473;SDS011;5793;52.238;13.438;2024-01-30T03:06:44;15.97;;;8.77;;
11473;SDS011;5793;52.238;13.438;2024-01-30T03:09:13;15.27;;;10.35;;
11473;SDS011;5793;52.238;13.438;2024-01-30T03:11:43;17.73;;;9.90;;
11473;SDS011;5793;52.238;13.438;2024-01-30T03:14:11;16.03;;;9.83;;
11473;SDS011;5793;52.238;13.438;2024-01-30T03:16:39;16.77;;;9.63;;
11473;SDS011;5793;52.238;13.438;2024-01-30T03:19:07;14.20;;;9.37;;
11473;SDS011;5793;52.238;13.438;2024-01-30T03:21:35;14.70;;;9.10;;
11473;SDS011;5793;52.238;13.438;2024-01-30T03:24:03;15.50;;;9.45;;
11473;SDS011;5793;52.238;13.438;2024-01-30T03:26:32;15.03;;;9.67;;
11473;SDS011;5793;52.238;13.438;2024-01-30T03:29:01;13.00;;;9.30;;
11473;SDS011;5793;52.238;13.438;2024-01-30T03:31:28;13.80;;;8.63;;
11473;SDS011;5793;52.238;13.438;2024-01-30T03:33:56;15.23;;;9.23;;
11473;SDS011;5793;52.238;13.438;2024-01-30T03:36:24;12.00;;;7.93;;
11473;SDS011;5793;52.238;13.438;2024-01-30T03:38:52;13.93;;;9.27;;
11473;SDS011;5793;52.238;13.438;2024-01-30T03:41:20;13.40;;;8.37;;
11473;SDS011;5793;52.238;13.438;2024-01-30T03:43:48;13.53;;;8.90;;
11473;SDS011;5793;52.238;13.438;2024-01-30T03:46:17;18.50;;;9.00;;
11473;SDS011;5793;52.238;13.438;2024-01-30T03:48:45;17.43;;;10.03;;
11473;SDS011;5793;52.238;13.438;2024-01-30T03:51:13;15.17;;;9.40;;
11473;SDS011;5793;52.238;13.438;2024-01-30T03:53:42;13.53;;;8.83;;
11473;SDS011;5793;52.238;13.438;2024-01-30T03:56:11;17.17;;;8.50;;
11473;SDS011;5793;52.238;13.438;2024-01-30T03:58:40;11.23;;;7.80;;
11473;SDS011;5793;52.238;13.438;2024-01-30T04:01:12;17.13;;;8.83;;
11473;SDS011;5793;52.238;13.438;2024-01-30T04:03:42;17.87;;;7.77;;
11473;SDS011;5793;52.238;13.438;2024-01-30T04:06:10;20.90;;;8.93;;
11473;SDS011;5793;52.238;13.438;2024-01-30T04:08:39;12.07;;;8.07;;
11473;SDS011;5793;52.238;13.438;2024-01-30T04:11:06;13.17;;;8.23;;
11473;SDS011;5793;52.238;13.438;2024-01-30T04:13:34;13.83;;;7.87;;
11473;SDS011;5793;52.238;13.438;2024-01-30T04:16:03;12.50;;;8.23;;
11473;SDS011;5793;52.238;13.438;2024-01-30T04:18:31;15.27;;;9.47;;
11473;SDS011;5793;52.238;13.438;2024-01-30T04:21:01;13.00;;;8.03;;
11473;SDS011;5793;52.238;13.438;2024-01-30T04:23:30;13.47;;;8.77;;
11473;SDS011;5793;52.238;13.438;2024-01-30T04:25:58;11.43;;;8.20;;
11473;SDS011;5793;52.238;13.438;2024-01-30T04:28:26;11.57;;;7.27;;
11473;SDS011;5793;52.238;13.438;2024-01-30T04:30:53;13.43;;;8.47;;
11473;SDS011;5793;52.238;13.438;2024-01-30T04:33:21;14.13;;;7.90;;
11473;SDS011;5793;52.238;13.438;2024-01-30T04:35:49;16.23;;;8.70;;
11473;SDS011;5793;52.238;13.438;2024-01-30T04:38:19;14.07;;;8.33;;
11473;SDS011;5793;52.238;13.438;2024-01-30T04:40:47;16.57;;;8.10;;
11473;SDS011;5793;52.238;13.438;2024-01-30T04:43:14;12.13;;;7.87;;
11473;SDS011;5793;52.238;13.438;2024-01-30T04:45:42;13.53;;;7.67;;
11473;SDS011;5793;52.238;13.438;2024-01-30T04:48:10;12.67;;;7.80;;
11473;SDS011;5793;52.238;13.438;2024-01-30T04:50:38;13.00;;;7.07;;
11473;SDS011;5793;52.238;13.438;2024-01-30T04:53:06;27.43;;;9.30;;
11473;SDS011;5793;52.238;13.438;2024-01-30T04:55:35;31.70;;;9.20;;
11473;SDS011;5793;52.238;13.438;2024-01-30T04:58:03;36.97;;;10.07;;
11473;SDS011;5793;52.238;13.438;2024-01-30T05:00:31;21.57;;;9.07;;
11473;SDS011;5793;52.238;13.438;2024-01-30T05:02:59;20.90;;;8.93;;
11473;SDS011;5793;52.238;13.438;2024-01-30T05:05:27;21.87;;;9.17;;
11473;SDS011;5793;52.238;13.438;2024-01-30T05:07:54;15.50;;;8.23;;
11473;SDS011;5793;52.238;13.438;2024-01-30T05:10:22;23.03;;;8.47;;
11473;SDS011;5793;52.238;13.438;2024-01-30T05:12:51;17.40;;;8.67;;
11473;SDS011;5793;52.238;13.438;2024-01-30T05:15:19;17.70;;;8.10;;
11473;SDS011;5793;52.238;13.438;2024-01-30T05:17:47;19.10;;;7.80;;
11473;SDS011;5793;52.238;13.438;2024-01-30T05:20:15;21.30;;;8.57;;
11473;SDS011;5793;52.238;13.438;2024-01-30T05:22:43;18.07;;;8.73;;
11473;SDS011;5793;52.238;13.438;2024-01-30T05:25:12;18.93;;;9.00;;
11473;SDS011;5793;52.238;13.438;2024-01-30T05:27:40;17.27;;;8.53;;
11473;SDS011;5793;52.238;13.438;2024-01-30T05:30:10;17.57;;;7.97;;
11473;SDS011;5793;52.238;13.438;2024-01-30T05:32:39;16.57;;;8.47;;
11473;SDS011;5793;52.238;13.438;2024-01-30T05:35:06;20.47;;;8.60;;
11473;SDS011;5793;52.238;13.438;2024-01-30T05:37:35;14.60;;;8.20;;
11473;SDS011;5793;52.238;13.438;2024-01-30T05:40:03;14.20;;;8.27;;
11473;SDS011;5793;52.238;13.438;2024-01-30T05:42:31;16.13;;;8.83;;
11473;SDS011;5793;52.238;13.438;2024-01-30T05:44:59;14.03;;;7.97;;
11473;SDS011;5793;52.238;13.438;2024-01-30T05:47:28;16.73;;;8.67;;
11473;SDS011;5793;52.238;13.438;2024-01-30T05:49:56;17.13;;;8.53;;
11473;SDS011;5793;52.238;13.438;2024-01-30T05:52:24;19.77;;;8.70;;
11473;SDS011;5793;52.238;13.438;2024-01-30T05:54:52;34.80;;;10.90;;
11473;SDS011;5793;52.238;13.438;2024-01-30T05:57:19;26.60;;;9.13;;
11473;SDS011;5793;52.238;13.438;2024-01-30T05:59:47;41.53;;;13.07;;
11473;SDS011;5793;52.238;13.438;2024-01-30T06:02:17;32.73;;;13.87;;
11473;SDS011;5793;52.238;13.438;2024-01-30T06:04:46;38.47;;;11.07;;
11473;SDS011;5793;52.238;13.438;2024-01-30T06:07:15;33.30;;;10.50;;
11473;SDS011;5793;52.238;13.438;2024-01-30T06:09:44;28.10;;;11.00;;
11473;SDS011;5793;52.238;13.438;2024-01-30T06:12:13;46.10;;;10.77;;
11473;SDS011;5793;52.238;13.438;2024-01-30T06:14:40;36.87;;;10.50;;
11473;SDS011;5793;52.238;13.438;2024-01-30T06:17:12;37.33;;;11.87;;
11473;SDS011;5793;52.238;13.438;2024-01-30T06:19:40;24.47;;;10.10;;
11473;SDS011;5793;52.238;13.438;2024-01-30T06:22:09;37.10;;;10.17;;
11473;SDS011;5793;52.238;13.438;2024-01-30T06:24:37;32.90;;;10.83;;
11473;SDS011;5793;52.238;13.438;2024-01-30T06:27:05;42.77;;;10.70;;
11473;SDS011;5793;52.238;13.438;2024-01-30T06:29:33;30.40;;;10.73;;
11473;SDS011;5793;52.238;13.438;2024-01-30T06:32:00;21.77;;;10.33;;
11473;SDS011;5793;52.238;13.438;2024-01-30T06:34:28;35.67;;;11.00;;
11473;SDS011;5793;52.238;13.438;2024-01-30T06:36:57;22.57;;;10.20;;
11473;SDS011;5793;52.238;13.438;2024-01-30T06:39:26;20.30;;;9.50;;
11473;SDS011;5793;52.238;13.438;2024-01-30T06:41:54;17.10;;;9.03;;
11473;SDS011;5793;52.238;13.438;2024-01-30T06:44:21;20.57;;;9.13;;
11473;SDS011;5793;52.238;13.438;2024-01-30T06:46:49;18.40;;;9.17;;
11473;SDS011;5793;52.238;13.438;2024-01-30T06:49:17;32.53;;;10.47;;
11473;SDS011;5793;52.238;13.438;2024-01-30T06:51:45;20.83;;;9.73;;
11473;SDS011;5793;52.238;13.438;2024-01-30T06:54:13;28.13;;;10.53;;
11473;SDS011;5793;52.238;13.438;2024-01-30T06:56:42;18.13;;;9.63;;
11473;SDS011;5793;52.238;13.438;2024-01-30T06:59:10;20.57;;;10.17;;
11473;SDS011;5793;52.238;13.438;2024-01-30T07:01:37;22.97;;;10.53;;
11473;SDS011;5793;52.238;13.438;2024-01-30T07:04:05;19.93;;;9.27;;
11473;SDS011;5793;52.238;13.438;2024-01-30T07:06:33;29.17;;;9.40;;
11473;SDS011;5793;52.238;13.438;2024-01-30T07:09:01;21.33;;;9.73;;
11473;SDS011;5793;52.238;13.438;2024-01-30T07:11:29;17.60;;;9.73;;
11473;SDS011;5793;52.238;13.438;2024-01-30T07:13:59;16.83;;;9.03;;
11473;SDS011;5793;52.238;13.438;2024-01-30T07:16:30;18.20;;;9.10;;
11473;SDS011;5793;52.238;13.438;2024-01-30T07:18:57;16.97;;;9.37;;
11473;SDS011;5793;52.238;13.438;2024-01-30T07:21:25;19.70;;;9.00;;
11473;SDS011;5793;52.238;13.438;2024-01-30T07:23:55;50.77;;;11.63;;
11473;SDS011;5793;52.238;13.438;2024-01-30T07:26:23;47.37;;;10.73;;
11473;SDS011;5793;52.238;13.438;2024-01-30T07:28:51;24.13;;;9.77;;
11473;SDS011;5793;52.238;13.438;2024-01-30T07:31:20;34.60;;;9.93;;
11473;SDS011;5793;52.238;13.438;2024-01-30T07:33:49;46.50;;;10.27;;
11473;SDS011;5793;52.238;13.438;2024-01-30T07:36:17;26.93;;;9.90;;
11473;SDS011;5793;52.238;13.438;2024-01-30T07:38:45;17.43;;;8.80;;
11473;SDS011;5793;52.238;13.438;2024-01-30T07:41:13;16.67;;;8.33;;
11473;SDS011;5793;52.238;13.438;2024-01-30T07:43:41;18.77;;;8.83;;
11473;SDS011;5793;52.238;13.438;2024-01-30T07:46:10;18.13;;;9.13;;
11473;SDS011;5793;52.238;13.438;2024-01-30T07:48:39;17.33;;;10.33;;
11473;SDS011;5793;52.238;13.438;2024-01-30T07:51:07;17.03;;;10.10;;
11473;SDS011;5793;52.238;13.438;2024-01-30T07:53:34;16.73;;;10.13;;
11473;SDS011;5793;52.238;13.438;2024-01-30T07:56:02;15.20;;;9.27;;
11473;SDS011;5793;52.238;13.438;2024-01-30T07:58:30;13.43;;;8.13;;
11473;SDS011;5793;52.238;13.438;2024-01-30T08:00:58;13.27;;;8.37;;
11473;SDS011;5793;52.238;13.438;2024-01-30T08:03:27;12.83;;;7.63;;
11473;SDS011;5793;52.238;13.438;2024-01-30T08:05:56;15.13;;;8.00;;
11473;SDS011;5793;52.238;13.438;2024-01-30T08:08:24;13.33;;;8.10;;
11473;SDS011;5793;52.238;13.438;2024-01-30T08:10:53;12.83;;;7.80;;
11473;SDS011;5793;52.238;13.438;2024-01-30T08:13:21;11.43;;;7.70;;
11473;SDS011;5793;52.238;13.438;2024-01-30T08:15:48;17.90;;;8.40;;
11473;SDS011;5793;52.238;13.438;2024-01-30T08:18:16;15.30;;;7.97;;
11473;SDS011;5793;52.238;13.438;2024-01-30T08:20:44;13.93;;;7.53;;
11473;SDS011;5793;52.238;13.438;2024-01-30T08:23:12;18.10;;;7.87;;
11473;SDS011;5793;52.238;13.438;2024-01-30T08:25:40;20.57;;;8.07;;
11473;SDS011;5793;52.238;13.438;2024-01-30T08:28:08;16.37;;;7.47;;
11473;SDS011;5793;52.238;13.438;2024-01-30T08:30:36;17.90;;;6.60;;
11473;SDS011;5793;52.238;13.438;2024-01-30T08:33:05;14.13;;;7.30;;
11473;SDS011;5793;52.238;13.438;2024-01-30T08:35:33;18.90;;;7.77;;
11473;SDS011;5793;52.238;13.438;2024-01-30T08:38:01;13.60;;;7.03;;
11473;SDS011;5793;52.238;13.438;2024-01-30T08:40:31;11.80;;;7.00;;
11473;SDS011;5793;52.238;13.438;2024-01-30T08:42:59;12.37;;;6.97;;
11473;SDS011;5793;52.238;13.438;2024-01-30T08:45:26;18.30;;;7.70;;
11473;SDS011;5793;52.238;13.438;2024-01-30T08:47:54;12.47;;;6.77;;
11473;SDS011;5793;52.238;13.438;2024-01-30T08:50:22;12.67;;;6.73;;
11473;SDS011;5793;52.238;13.438;2024-01-30T08:52:50;15.67;;;7.27;;
11473;SDS011;5793;52.238;13.438;2024-01-30T08:55:17;10.47;;;6.33;;
11473;SDS011;5793;52.238;13.438;2024-01-30T08:57:47;12.90;;;6.87;;
11473;SDS011;5793;52.238;13.438;2024-01-30T09:00:15;15.80;;;6.73;;
11473;SDS011;5793;52.238;13.438;2024-01-30T09:02:43;12.07;;;6.40;;
11473;SDS011;5793;52.238;13.438;2024-01-30T09:05:11;14.87;;;6.23;;
11473;SDS011;5793;52.238;13.438;2024-01-30T09:07:39;14.87;;;6.17;;
11473;SDS011;5793;52.238;13.438;2024-01-30T09:10:07;11.53;;;6.40;;
11473;SDS011;5793;52.238;13.438;2024-01-30T09:12:39;11.63;;;6.23;;
11473;SDS011;5793;52.238;13.438;2024-01-30T09:15:09;10.63;;;6.00;;
11473;SDS011;5793;52.238;13.438;2024-01-30T09:17:37;8.33;;;5.43;;
11473;SDS011;5793;52.238;13.438;2024-01-30T09:20:05;9.03;;;5.80;;
11473;SDS011;5793;52.238;13.438;2024-01-30T09:22:35;10.87;;;5.50;;
11473;SDS011;5793;52.238;13.438;2024-01-30T09:25:03;6.97;;;4.97;;
11473;SDS011;5793;52.238;13.438;2024-01-30T09:27:31;8.97;;;5.27;;
11473;SDS011;5793;52.238;13.438;2024-01-30T09:29:59;12.37;;;5.70;;
11473;SDS011;5793;52.238;13.438;2024-01-30T09:32:28;10.60;;;5.70;;
11473;SDS011;5793;52.238;13.438;2024-01-30T09:34:56;8.77;;;5.00;;
11473;SDS011;5793;52.238;13.438;2024-01-30T09:37:24;12.50;;;5.87;;
11473;SDS011;5793;52.238;13.438;2024-01-30T09:39:53;11.93;;;5.77;;
11473;SDS011;5793;52.238;13.438;2024-01-30T09:42:23;9.33;;;5.17;;
11473;SDS011;5793;52.238;13.438;2024-01-30T09:44:55;10.73;;;6.07;;
11473;SDS011;5793;52.238;13.438;2024-01-30T09:47:24;11.83;;;5.87;;
11473;SDS011;5793;52.238;13.438;2024-01-30T09:49:53;10.20;;;5.20;;
11473;SDS011;5793;52.238;13.438;2024-01-30T09:52:22;12.33;;;5.77;;
11473;SDS011;5793;52.238;13.438;2024-01-30T09:54:51;16.47;;;6.50;;
11473;SDS011;5793;52.238;13.438;2024-01-30T09:57:19;9.43;;;5.33;;
11473;SDS011;5793;52.238;13.438;2024-01-30T09:59:48;14.17;;;6.23;;
11473;SDS011;5793;52.238;13.438;2024-01-30T10:02:17;11.10;;;5.10;;
11473;SDS011;5793;52.238;13.438;2024-01-30T10:04:47;9.93;;;5.13;;
11473;SDS011;5793;52.238;13.438;2024-01-30T10:07:17;13.03;;;6.00;;
11473;SDS011;5793;52.238;13.438;2024-01-30T10:09:45;17.50;;;5.83;;
11473;SDS011;5793;52.238;13.438;2024-01-30T10:12:13;18.67;;;6.13;;
11473;SDS011;5793;52.238;13.438;2024-01-30T10:14:41;14.40;;;5.70;;
11473;SDS011;5793;52.238;13.438;2024-01-30T10:17:10;11.37;;;5.70;;
11473;SDS011;5793;52.238;13.438;2024-01-30T10:19:52;17.13;;;5.97;;
11473;SDS011;5793;52.238;13.438;2024-01-30T10:22:22;16.23;;;5.63;;
11473;SDS011;5793;52.238;13.438;2024-01-30T10:24:50;12.17;;;5.67;;
11473;SDS011;5793;52.238;13.438;2024-01-30T10:27:23;11.00;;;5.50;;
11473;SDS011;5793;52.238;13.438;2024-01-30T10:29:52;7.97;;;5.47;;
11473;SDS011;5793;52.238;13.438;2024-01-30T10:32:20;14.17;;;5.63;;
11473;SDS011;5793;52.238;13.438;2024-01-30T10:34:48;12.80;;;6.00;;
11473;SDS011;5793;52.238;13.438;2024-01-30T10:37:16;11.67;;;6.27;;
11473;SDS011;5793;52.238;13.438;2024-01-30T10:39:48;14.07;;;5.97;;
11473;SDS011;5793;52.238;13.438;2024-01-30T10:42:17;21.27;;;6.70;;
11473;SDS011;5793;52.238;13.438;2024-01-30T10:44:48;16.97;;;6.53;;
11473;SDS011;5793;52.238;13.438;2024-01-30T10:47:26;10.13;;;5.70;;
11473;SDS011;5793;52.238;13.438;2024-01-30T10:49:55;11.40;;;6.90;;
11473;SDS011;5793;52.238;13.438;2024-01-30T10:52:23;20.00;;;6.97;;
11473;SDS011;5793;52.238;13.438;2024-01-30T10:54:54;18.47;;;7.20;;
11473;SDS011;5793;52.238;13.438;2024-01-30T10:57:23;11.33;;;6.83;;
11473;SDS011;5793;52.238;13.438;2024-01-30T10:59:52;12.67;;;6.23;;
11473;SDS011;5793;52.238;13.438;2024-01-30T11:02:23;11.77;;;6.03;;
11473;SDS011;5793;52.238;13.438;2024-01-30T11:04:55;16.77;;;6.40;;
11473;SDS011;5793;52.238;13.438;2024-01-30T11:07:25;11.63;;;5.83;;
11473;SDS011;5793;52.238;13.438;2024-01-30T11:09:59;9.20;;;6.60;;
11473;SDS011;5793;52.238;13.438;2024-01-30T11:12:29;9.37;;;6.00;;
11473;SDS011;5793;52.238;13.438;2024-01-30T11:15:03;11.30;;;6.70;;
11473;SDS011;5793;52.238;13.438;2024-01-30T11:17:45;14.60;;;6.83;;
11473;SDS011;5793;52.238;13.438;2024-01-30T11:20:19;12.03;;;6.70;;
11473;SDS011;5793;52.238;13.438;2024-01-30T11:22:49;10.03;;;6.23;;
11473;SDS011;5793;52.238;13.438;2024-01-30T11:25:20;13.60;;;7.10;;
11473;SDS011;5793;52.238;13.438;2024-01-30T11:27:49;9.87;;;6.37;;
11473;SDS011;5793;52.238;13.438;2024-01-30T11:30:21;10.07;;;6.93;;
11473;SDS011;5793;52.238;13.438;2024-01-30T11:32:59;12.97;;;6.70;;
11473;SDS011;5793;52.238;13.438;2024-01-30T11:35:29;16.77;;;7.40;;
11473;SDS011;5793;52.238;13.438;2024-01-30T11:37:59;11.00;;;6.63;;
11473;SDS011;5793;52.238;13.438;2024-01-30T11:40:29;14.00;;;7.27;;
11473;SDS011;5793;52.238;13.438;2024-01-30T11:42:59;12.90;;;7.50;;
11473;SDS011;5793;52.238;13.438;2024-01-30T11:45:27;12.77;;;6.47;;
11473;SDS011;5793;52.238;13.438;2024-01-30T11:47:56;12.87;;;7.27;;
11473;SDS011;5793;52.238;13.438;2024-01-30T11:50:26;12.73;;;6.60;;
11473;SDS011;5793;52.238;13.438;2024-01-30T11:52:54;14.60;;;6.97;;
11473;SDS011;5793;52.238;13.438;2024-01-30T11:55:23;9.87;;;6.33;;
11473;SDS011;5793;52.238;13.438;2024-01-30T11:57:56;13.00;;;6.47;;
11473;SDS011;5793;52.238;13.438;2024-01-30T12:00:24;12.33;;;7.63;;
11473;SDS011;5793;52.238;13.438;2024-01-30T12:02:53;12.53;;;6.87;;
11473;SDS011;5793;52.238;13.438;2024-01-30T12:05:23;10.50;;;6.60;;
11473;SDS011;5793;52.238;13.438;2024-01-30T12:07:51;11.63;;;6.40;;
11473;SDS011;5793;52.238;13.438;2024-01-30T12:10:20;11.87;;;6.67;;
11473;SDS011;5793;52.238;13.438;2024-01-30T12:12:49;16.77;;;6.83;;
11473;SDS011;5793;52.238;13.438;2024-01-30T12:15:20;10.97;;;6.73;;
11473;SDS011;5793;52.238;13.438;2024-01-30T12:17:49;24.03;;;8.30;;
11473;SDS011;5793;52.238;13.438;2024-01-30T12:20:17;14.23;;;7.10;;
11473;SDS011;5793;52.238;13.438;2024-01-30T12:22:48;11.55;;;7.18;;
11473;SDS011;5793;52.238;13.438;2024-01-30T12:25:18;14.90;;;6.67;;
11473;SDS011;5793;52.238;13.438;2024-01-30T12:27:49;16.90;;;6.93;;
11473;SDS011;5793;52.238;13.438;2024-01-30T12:30:20;9.27;;;6.40;;
11473;SDS011;5793;52.238;13.438;2024-01-30T12:32:49;9.97;;;6.53;;
11473;SDS011;5793;52.238;13.438;2024-01-30T12:35:19;14.57;;;7.10;;
11473;SDS011;5793;52.238;13.438;2024-01-30T12:37:48;12.47;;;6.70;;
11473;SDS011;5793;52.238;13.438;2024-01-30T12:40:16;25.47;;;8.97;;
11473;SDS011;5793;52.238;13.438;2024-01-30T12:42:46;11.02;;;7.82;;
11473;SDS011;5793;52.238;13.438;2024-01-30T12:45:16;9.63;;;6.60;;
11473;SDS011;5793;52.238;13.438;2024-01-30T12:47:48;13.87;;;7.20;;
11473;SDS011;5793;52.238;13.438;2024-01-30T12:50:16;11.87;;;6.43;;
11473;SDS011;5793;52.238;13.438;2024-01-30T12:52:45;10.67;;;6.97;;
11473;SDS011;5793;52.238;13.438;2024-01-30T12:55:15;12.17;;;6.97;;
11473;SDS011;5793;52.238;13.438;2024-01-30T12:57:44;11.97;;;6.57;;
11473;SDS011;5793;52.238;13.438;2024-01-30T13:00:12;22.17;;;7.90;;
11473;SDS011;5793;52.238;13.438;2024-01-30T13:02:40;18.67;;;9.40;;
11473;SDS011;5793;52.238;13.438;2024-01-30T13:05:10;9.83;;;6.63;;
11473;SDS011;5793;52.238;13.438;2024-01-30T13:07:38;14.98;;;7.15;;
11473;SDS011;5793;52.238;13.438;2024-01-30T13:10:06;18.27;;;7.67;;
11473;SDS011;5793;52.238;13.438;2024-01-30T13:12:34;12.10;;;7.00;;
11473;SDS011;5793;52.238;13.438;2024-01-30T13:15:03;8.97;;;6.27;;
11473;SDS011;5793;52.238;13.438;2024-01-30T13:17:32;10.23;;;6.57;;
11473;SDS011;5793;52.238;13.438;2024-01-30T13:20:00;10.45;;;6.57;;
11473;SDS011;5793;52.238;13.438;2024-01-30T13:22:38;19.27;;;7.10;;
11473;SDS011;5793;52.238;13.438;2024-01-30T13:25:06;12.23;;;6.65;;
11473;SDS011;5793;52.238;13.438;2024-01-30T13:27:35;11.95;;;6.38;;
11473;SDS011;5793;52.238;13.438;2024-01-30T13:30:03;13.43;;;7.55;;
11473;SDS011;5793;52.238;13.438;2024-01-30T13:32:32;14.30;;;6.67;;
11473;SDS011;5793;52.238;13.438;2024-01-30T13:34:59;17.53;;;7.33;;
11473;SDS011;5793;52.238;13.438;2024-01-30T13:37:27;14.40;;;7.17;;
11473;SDS011;5793;52.238;13.438;2024-01-30T13:39:57;16.10;;;7.30;;
11473;SDS011;5793;52.238;13.438;2024-01-30T13:42:27;13.23;;;7.20;;
11473;SDS011;5793;52.238;13.438;2024-01-30T13:44:55;15.17;;;7.47;;
11473;SDS011;5793;52.238;13.438;2024-01-30T13:47:23;10.20;;;7.10;;
11473;SDS011;5793;52.238;13.438;2024-01-30T13:49:51;16.97;;;7.30;;
11473;SDS011;5793;52.238;13.438;2024-01-30T13:52:20;16.92;;;8.45;;
11473;SDS011;5793;52.238;13.438;2024-01-30T13:54:53;13.73;;;6.97;;
11473;SDS011;5793;52.238;13.438;2024-01-30T13:57:23;12.07;;;7.23;;
11473;SDS011;5793;52.238;13.438;2024-01-30T13:59:50;14.57;;;7.07;;
11473;SDS011;5793;52.238;13.438;2024-01-30T14:02:18;18.60;;;7.77;;
11473;SDS011;5793;52.238;13.438;2024-01-30T14:04:46;17.57;;;7.50;;
11473;SDS011;5793;52.238;13.438;2024-01-30T14:07:14;18.60;;;7.80;;
11473;SDS011;5793;52.238;13.438;2024-01-30T14:09:44;16.10;;;7.23;;
11473;SDS011;5793;52.238;13.438;2024-01-30T14:12:12;17.40;;;6.73;;
11473;SDS011;5793;52.238;13.438;2024-01-30T14:14:41;8.73;;;6.10;;
11473;SDS011;5793;52.238;13.438;2024-01-30T14:17:09;9.33;;;6.37;;
11473;SDS011;5793;52.238;13.438;2024-01-30T14:19:37;18.07;;;7.70;;
11473;SDS011;5793;52.238;13.438;2024-01-30T14:22:05;14.53;;;7.50;;
11473;SDS011;5793;52.238;13.438;2024-01-30T14:24:33;13.70;;;7.63;;
11473;SDS011;5793;52.238;13.438;2024-01-30T14:27:01;16.03;;;7.17;;
11473;SDS011;5793;52.238;13.438;2024-01-30T14:29:29;18.00;;;8.00;;
11473;SDS011;5793;52.238;13.438;2024-01-30T14:31:58;17.40;;;8.20;;
11473;SDS011;5793;52.238;13.438;2024-01-30T14:34:26;10.00;;;6.83;;
11473;SDS011;5793;52.238;13.438;2024-01-30T14:36:54;13.30;;;6.73;;
11473;SDS011;5793;52.238;13.438;2024-01-30T14:39:22;16.43;;;6.77;;
11473;SDS011;5793;52.238;13.438;2024-01-30T14:41:50;12.30;;;7.33;;
11473;SDS011;5793;52.238;13.438;2024-01-30T14:44:18;8.83;;;6.80;;